Details From CYYR - Goose Bay
To CZUM - CHURCHILL FALLS
Flight Number -
Tags generated
Created
Modified
Stats Distance 146 nm / 271 km
Max Altitude 4,600 ft / 1,402 m
Waypoints 4
Social Downloads 1
Likes 0
Share VATSIM

Download

Looking for another format? Having issues loading an existing format? Contact us
Advertisement - Login to hide

Notes

Basic altitude profile: - Ascent Rate: 2500ft/min - Ascent Speed: 250kts - Cruise Altitude: 21000ft - Cruise Speed: 420kts - Descent Rate: 1500ft/min - Descent Speed: 250kts Options: - Use NATs: yes - Use PACOTS: yes - Use low airways: yes - Use high airways: yes

Route

CYYR YR R29 UM CZUM

ID Type Via Altitude Latitude Longitude Leg Dist Tot Dist Heading (true) Name
O CYYR APT - 0 ft / 0 m 53.31882˚ -60.42389˚ - 0 nm - Goose Bay
YR NDB - 800 ft / 244 m 53.33833˚ -60.36667˚ 2 nm 2 nm 60° / 60° GOOSE NDB
UM NDB R29 (AWY-LO) 4,600 ft / 1,402 m 53.59056˚ -64.23556˚ 139 nm 141 nm 278° / 275° CHURCHILL FALLS NDB
O CZUM APT - 0 ft / 0 m 53.56262˚ -64.10594˚ 4 nm 146 nm 110° / 110° CHURCHILL FALLS

Altitude Profile

Advertisement - Login to hide

CYYR

Details ICAO CYYR (YYR)
Name Goose Bay
Region Canada
Timezone America/Goose_Bay (UTC-3.0)
Stats Elevation 160 ft / 49 m (AMSL)
Location 53.318820° -60.423890°
Runways 2
Magnetic Variation 20.868° W

METAR

CYYR 250000Z 07005KT 15SM FEW056 FEW110 FEW250 M00/M08 A2992 RMK SC2AC1CI1 SLP137

Decode

TAF

TAF CYYR 242330Z 2500/2524 07005KT P6SM FEW050 BKN110 FM250400 07005KT P6SM BKN050 OVC100 TEMPO 2504/2514 P6SM -SHSN OVC050 FM251400 10008KT P6SM SCT015 OVC030 TEMPO 2514/2518 4SM -RASN BR OVC015 FM251800 10008KT 5SM -SHRA BR SCT006 OVC012 RMK NXT FCST BY 250600Z

Decode

Departure Runways

ID Width Length Bearing (true) Bearing (mag) Surface Threshold Offset Overrun Length
08 209 ft / 64 m 11,055 ft / 3,369 m 54.70° 75.57° Asphalt 0 ft / 0 m 1,000 ft / 305 m
16 200 ft / 61 m 9,515 ft / 2,900 m 132.96° 153.83° Asphalt 0 ft / 0 m 0 ft / 0 m
26 209 ft / 64 m 11,055 ft / 3,369 m 234.73° 255.60° Asphalt 0 ft / 0 m 1,000 ft / 305 m
34 200 ft / 61 m 9,515 ft / 2,900 m 312.99° 333.86° Asphalt 0 ft / 0 m 500 ft / 152 m

CZUM

Details ICAO CZUM (ZUM)
Name CHURCHILL FALLS
Region Canada
Timezone America/Goose_Bay (UTC-3.0)
Stats Elevation 1,442 ft / 440 m (AMSL)
Location 53.562625° -64.105935°
Runways 1
Magnetic Variation 20.694° W

METAR

CZUM 250000Z AUTO 06005KT 9SM CLR M01/M08 A2977 RMK SLP110

Decode

TAF

TAF CZUM 241938Z 2420/2508 07007KT P6SM FEW040 FM250500 08007KT P6SM BKN040 RMK FCST BASED ON AUTO OBS. NXT FCST BY 250200Z

Decode

Destination Runways

ID Width Length Bearing (true) Bearing (mag) Surface Threshold Offset Overrun Length
13 150 ft / 46 m 5,484 ft / 1,671 m 104.57° 125.26° Asphalt 0 ft / 0 m 0 ft / 0 m
31 150 ft / 46 m 5,484 ft / 1,671 m 284.59° 305.28° Asphalt 0 ft / 0 m 0 ft / 0 m

Popular Alternatives